sensor_id;sensor_type;location;lat;lon;timestamp;temperature;humidity
7194;DHT22;3638;48.820;9.244;2023-04-06T00:00:33;1.50;99.90
7194;DHT22;3638;48.820;9.244;2023-04-06T00:03:00;1.50;99.90
7194;DHT22;3638;48.820;9.244;2023-04-06T00:05:27;1.40;99.90
7194;DHT22;3638;48.820;9.244;2023-04-06T00:07:57;1.40;99.90
7194;DHT22;3638;48.820;9.244;2023-04-06T00:12:52;1.30;99.90
7194;DHT22;3638;48.820;9.244;2023-04-06T00:15:19;1.30;99.90
7194;DHT22;3638;48.820;9.244;2023-04-06T00:17:46;1.50;99.90
7194;DHT22;3638;48.820;9.244;2023-04-06T00:20:13;1.50;99.90
7194;DHT22;3638;48.820;9.244;2023-04-06T00:22:40;1.50;99.90
7194;DHT22;3638;48.820;9.244;2023-04-06T00:25:09;1.60;99.90
7194;DHT22;3638;48.820;9.244;2023-04-06T00:27:37;1.70;99.90
7194;DHT22;3638;48.820;9.244;2023-04-06T00:30:04;1.70;99.90
7194;DHT22;3638;48.820;9.244;2023-04-06T00:32:32;1.70;99.90
7194;DHT22;3638;48.820;9.244;2023-04-06T00:34:59;1.60;99.90
7194;DHT22;3638;48.820;9.244;2023-04-06T00:37:26;1.60;99.90
7194;DHT22;3638;48.820;9.244;2023-04-06T00:39:53;1.40;99.90
7194;DHT22;3638;48.820;9.244;2023-04-06T00:42:21;1.40;99.90
7194;DHT22;3638;48.820;9.244;2023-04-06T00:44:52;1.20;99.90
7194;DHT22;3638;48.820;9.244;2023-04-06T00:47:19;1.20;99.90
7194;DHT22;3638;48.820;9.244;2023-04-06T00:49:46;1.20;99.90
7194;DHT22;3638;48.820;9.244;2023-04-06T00:52:13;1.10;99.90
7194;DHT22;3638;48.820;9.244;2023-04-06T00:54:41;1.10;99.90
7194;DHT22;3638;48.820;9.244;2023-04-06T00:57:08;1.00;99.90
7194;DHT22;3638;48.820;9.244;2023-04-06T00:59:36;0.80;99.90
7194;DHT22;3638;48.820;9.244;2023-04-06T01:02:03;0.80;99.90
7194;DHT22;3638;48.820;9.244;2023-04-06T01:04:30;0.70;99.90
7194;DHT22;3638;48.820;9.244;2023-04-06T01:06:58;0.80;99.90
7194;DHT22;3638;48.820;9.244;2023-04-06T01:09:24;0.70;99.90
7194;DHT22;3638;48.820;9.244;2023-04-06T01:14:19;0.70;99.90
7194;DHT22;3638;48.820;9.244;2023-04-06T01:16:48;0.60;99.90
7194;DHT22;3638;48.820;9.244;2023-04-06T01:19:15;0.60;99.90
7194;DHT22;3638;48.820;9.244;2023-04-06T01:21:42;0.60;99.90
7194;DHT22;3638;48.820;9.244;2023-04-06T01:24:10;0.70;99.90
7194;DHT22;3638;48.820;9.244;2023-04-06T01:26:38;0.80;99.90
7194;DHT22;3638;48.820;9.244;2023-04-06T01:29:05;0.60;99.90
7194;DHT22;3638;48.820;9.244;2023-04-06T01:31:31;0.70;99.90
7194;DHT22;3638;48.820;9.244;2023-04-06T01:33:58;1.60;99.90
7194;DHT22;3638;48.820;9.244;2023-04-06T01:36:25;0.60;99.90
7194;DHT22;3638;48.820;9.244;2023-04-06T01:38:52;0.50;99.90
7194;DHT22;3638;48.820;9.244;2023-04-06T01:41:21;0.60;99.90
7194;DHT22;3638;48.820;9.244;2023-04-06T01:43:48;0.60;99.90
7194;DHT22;3638;48.820;9.244;2023-04-06T01:46:19;0.60;99.90
7194;DHT22;3638;48.820;9.244;2023-04-06T01:48:46;0.50;99.90
7194;DHT22;3638;48.820;9.244;2023-04-06T01:51:13;0.40;99.90
7194;DHT22;3638;48.820;9.244;2023-04-06T01:53:40;0.40;99.90
7194;DHT22;3638;48.820;9.244;2023-04-06T01:56:07;0.40;99.90
7194;DHT22;3638;48.820;9.244;2023-04-06T01:58:36;0.50;99.90
7194;DHT22;3638;48.820;9.244;2023-04-06T02:01:03;0.40;99.90
7194;DHT22;3638;48.820;9.244;2023-04-06T02:05:57;0.40;99.90
7194;DHT22;3638;48.820;9.244;2023-04-06T02:08:24;0.30;99.90
7194;DHT22;3638;48.820;9.244;2023-04-06T02:10:51;0.30;99.90
7194;DHT22;3638;48.820;9.244;2023-04-06T02:13:18;0.20;99.90
7194;DHT22;3638;48.820;9.244;2023-04-06T02:15:46;0.20;99.90
7194;DHT22;3638;48.820;9.244;2023-04-06T02:18:13;0.30;99.90
7194;DHT22;3638;48.820;9.244;2023-04-06T02:20:40;0.30;99.90
7194;DHT22;3638;48.820;9.244;2023-04-06T02:23:07;0.20;99.90
7194;DHT22;3638;48.820;9.244;2023-04-06T02:25:34;0.10;99.90
7194;DHT22;3638;48.820;9.244;2023-04-06T02:28:01;0.10;99.90
7194;DHT22;3638;48.820;9.244;2023-04-06T02:30:28;0.20;99.90
7194;DHT22;3638;48.820;9.244;2023-04-06T02:32:58;0.20;99.90
7194;DHT22;3638;48.820;9.244;2023-04-06T02:35:25;0.20;99.90
7194;DHT22;3638;48.820;9.244;2023-04-06T02:37:53;0.30;99.90
7194;DHT22;3638;48.820;9.244;2023-04-06T02:40:20;0.20;99.90
7194;DHT22;3638;48.820;9.244;2023-04-06T02:42:47;0.10;99.90
7194;DHT22;3638;48.820;9.244;2023-04-06T02:45:14;0.00;99.90
7194;DHT22;3638;48.820;9.244;2023-04-06T02:47:41;0.10;99.90
7194;DHT22;3638;48.820;9.244;2023-04-06T02:50:10;0.10;99.90
7194;DHT22;3638;48.820;9.244;2023-04-06T02:52:37;-0.50;99.90
7194;DHT22;3638;48.820;9.244;2023-04-06T02:55:04;0.20;99.90
7194;DHT22;3638;48.820;9.244;2023-04-06T02:57:33;0.20;99.90
7194;DHT22;3638;48.820;9.244;2023-04-06T03:00:00;0.10;99.90
7194;DHT22;3638;48.820;9.244;2023-04-06T03:02:26;0.00;99.90
7194;DHT22;3638;48.820;9.244;2023-04-06T03:04:53;0.10;99.90
7194;DHT22;3638;48.820;9.244;2023-04-06T03:07:22;0.10;99.90
7194;DHT22;3638;48.820;9.244;2023-04-06T03:09:49;0.10;99.90
7194;DHT22;3638;48.820;9.244;2023-04-06T03:12:16;0.00;99.90
7194;DHT22;3638;48.820;9.244;2023-04-06T03:14:43;-0.10;99.90
7194;DHT22;3638;48.820;9.244;2023-04-06T03:17:10;-0.20;99.90
7194;DHT22;3638;48.820;9.244;2023-04-06T03:19:37;-0.30;99.90
7194;DHT22;3638;48.820;9.244;2023-04-06T03:22:03;-0.40;99.90
7194;DHT22;3638;48.820;9.244;2023-04-06T03:24:32;-0.40;99.90
7194;DHT22;3638;48.820;9.244;2023-04-06T03:26:59;-0.40;99.90
7194;DHT22;3638;48.820;9.244;2023-04-06T03:29:26;-0.40;99.90
7194;DHT22;3638;48.820;9.244;2023-04-06T03:31:53;-0.40;99.90
7194;DHT22;3638;48.820;9.244;2023-04-06T03:34:19;1.60;99.90
7194;DHT22;3638;48.820;9.244;2023-04-06T03:36:46;-0.40;99.90
7194;DHT22;3638;48.820;9.244;2023-04-06T03:39:13;-0.30;99.90
7194;DHT22;3638;48.820;9.244;2023-04-06T03:41:41;-0.30;99.90
7194;DHT22;3638;48.820;9.244;2023-04-06T03:44:09;-0.20;99.90
7194;DHT22;3638;48.820;9.244;2023-04-06T03:46:36;-0.30;99.90
7194;DHT22;3638;48.820;9.244;2023-04-06T03:49:03;-0.40;99.90
7194;DHT22;3638;48.820;9.244;2023-04-06T03:51:30;-0.30;99.90
7194;DHT22;3638;48.820;9.244;2023-04-06T03:53:57;-0.40;99.90
7194;DHT22;3638;48.820;9.244;2023-04-06T03:56:24;-0.40;99.90
7194;DHT22;3638;48.820;9.244;2023-04-06T03:58:52;-0.40;99.90
7194;DHT22;3638;48.820;9.244;2023-04-06T04:01:19;-0.40;99.90
7194;DHT22;3638;48.820;9.244;2023-04-06T04:03:45;-0.40;99.90
7194;DHT22;3638;48.820;9.244;2023-04-06T04:06:12;-0.30;99.90
7194;DHT22;3638;48.820;9.244;2023-04-06T04:08:39;-0.30;99.90
7194;DHT22;3638;48.820;9.244;2023-04-06T04:11:06;-0.40;99.90
7194;DHT22;3638;48.820;9.244;2023-04-06T04:13:33;-0.50;99.90
7194;DHT22;3638;48.820;9.244;2023-04-06T04:16:01;-0.50;99.90
7194;DHT22;3638;48.820;9.244;2023-04-06T04:18:28;-0.50;99.90
7194;DHT22;3638;48.820;9.244;2023-04-06T04:20:55;-0.50;99.90
7194;DHT22;3638;48.820;9.244;2023-04-06T04:23:22;-0.50;99.90
7194;DHT22;3638;48.820;9.244;2023-04-06T04:25:49;-0.50;99.90
7194;DHT22;3638;48.820;9.244;2023-04-06T04:28:16;-0.60;99.90
7194;DHT22;3638;48.820;9.244;2023-04-06T04:30:43;-0.60;99.90
7194;DHT22;3638;48.820;9.244;2023-04-06T04:33:11;-0.50;99.90
7194;DHT22;3638;48.820;9.244;2023-04-06T04:35:38;-0.50;99.90
7194;DHT22;3638;48.820;9.244;2023-04-06T04:38:05;-0.30;99.90
7194;DHT22;3638;48.820;9.244;2023-04-06T04:40:32;0.10;99.90
7194;DHT22;3638;48.820;9.244;2023-04-06T04:42:59;0.10;99.90
7194;DHT22;3638;48.820;9.244;2023-04-06T04:45:25;0.30;99.90
7194;DHT22;3638;48.820;9.244;2023-04-06T04:47:52;0.20;99.90
7194;DHT22;3638;48.820;9.244;2023-04-06T04:50:20;-0.10;99.90
7194;DHT22;3638;48.820;9.244;2023-04-06T04:52:47;-0.20;99.90
7194;DHT22;3638;48.820;9.244;2023-04-06T04:55:14;-0.20;99.90
7194;DHT22;3638;48.820;9.244;2023-04-06T04:57:41;-0.30;99.90
7194;DHT22;3638;48.820;9.244;2023-04-06T05:00:09;-0.40;99.90
7194;DHT22;3638;48.820;9.244;2023-04-06T05:02:36;-0.50;99.90
7194;DHT22;3638;48.820;9.244;2023-04-06T05:05:03;-0.50;99.90
7194;DHT22;3638;48.820;9.244;2023-04-06T05:07:32;-0.50;99.90
7194;DHT22;3638;48.820;9.244;2023-04-06T05:09:59;-0.50;99.90
7194;DHT22;3638;48.820;9.244;2023-04-06T05:12:26;-1.80;99.90
7194;DHT22;3638;48.820;9.244;2023-04-06T05:14:53;-0.40;99.90
7194;DHT22;3638;48.820;9.244;2023-04-06T05:17:20;-0.30;99.90
7194;DHT22;3638;48.820;9.244;2023-04-06T05:19:47;-0.20;99.90
7194;DHT22;3638;48.820;9.244;2023-04-06T05:22:14;-0.20;99.90
7194;DHT22;3638;48.820;9.244;2023-04-06T05:24:44;-0.20;99.90
7194;DHT22;3638;48.820;9.244;2023-04-06T05:27:11;0.00;99.90
7194;DHT22;3638;48.820;9.244;2023-04-06T05:29:38;0.00;99.90
7194;DHT22;3638;48.820;9.244;2023-04-06T05:32:05;0.00;99.90
7194;DHT22;3638;48.820;9.244;2023-04-06T05:34:32;0.00;99.90
7194;DHT22;3638;48.820;9.244;2023-04-06T05:36:59;0.10;99.90
7194;DHT22;3638;48.820;9.244;2023-04-06T05:39:26;0.40;99.90
7194;DHT22;3638;48.820;9.244;2023-04-06T05:41:54;0.40;99.90
7194;DHT22;3638;48.820;9.244;2023-04-06T05:44:21;0.60;99.90
7194;DHT22;3638;48.820;9.244;2023-04-06T05:46:48;0.80;99.90
7194;DHT22;3638;48.820;9.244;2023-04-06T05:49:15;1.60;99.90
7194;DHT22;3638;48.820;9.244;2023-04-06T05:51:42;1.60;99.90
7194;DHT22;3638;48.820;9.244;2023-04-06T05:54:09;2.10;99.90
7194;DHT22;3638;48.820;9.244;2023-04-06T05:56:35;2.40;99.90
7194;DHT22;3638;48.820;9.244;2023-04-06T05:59:04;3.00;99.90
7194;DHT22;3638;48.820;9.244;2023-04-06T06:01:32;3.10;99.90
7194;DHT22;3638;48.820;9.244;2023-04-06T06:04:00;3.20;99.90
7194;DHT22;3638;48.820;9.244;2023-04-06T06:06:28;3.70;99.90
7194;DHT22;3638;48.820;9.244;2023-04-06T06:08:55;4.10;99.90
7194;DHT22;3638;48.820;9.244;2023-04-06T06:11:24;4.50;99.90
7194;DHT22;3638;48.820;9.244;2023-04-06T06:13:51;4.80;99.90
7194;DHT22;3638;48.820;9.244;2023-04-06T06:16:19;5.10;99.90
7194;DHT22;3638;48.820;9.244;2023-04-06T06:18:46;5.40;99.90
7194;DHT22;3638;48.820;9.244;2023-04-06T06:21:13;5.50;99.90
7194;DHT22;3638;48.820;9.244;2023-04-06T06:23:42;5.60;99.90
7194;DHT22;3638;48.820;9.244;2023-04-06T06:26:09;5.70;99.90
7194;DHT22;3638;48.820;9.244;2023-04-06T06:28:36;5.70;99.90
7194;DHT22;3638;48.820;9.244;2023-04-06T06:31:03;5.80;99.90
7194;DHT22;3638;48.820;9.244;2023-04-06T06:33:31;5.90;99.90
7194;DHT22;3638;48.820;9.244;2023-04-06T06:35:58;6.00;99.90
7194;DHT22;3638;48.820;9.244;2023-04-06T06:38:25;6.60;99.90
7194;DHT22;3638;48.820;9.244;2023-04-06T06:40:52;6.60;99.90
7194;DHT22;3638;48.820;9.244;2023-04-06T06:43:19;7.00;99.90
7194;DHT22;3638;48.820;9.244;2023-04-06T06:45:46;7.00;99.90
7194;DHT22;3638;48.820;9.244;2023-04-06T06:48:13;7.20;99.90
7194;DHT22;3638;48.820;9.244;2023-04-06T06:50:41;7.40;99.90
7194;DHT22;3638;48.820;9.244;2023-04-06T06:53:08;7.60;99.90
7194;DHT22;3638;48.820;9.244;2023-04-06T06:55:36;7.80;99.40
7194;DHT22;3638;48.820;9.244;2023-04-06T06:58:03;8.40;99.90
7194;DHT22;3638;48.820;9.244;2023-04-06T07:00:30;9.20;98.30
7194;DHT22;3638;48.820;9.244;2023-04-06T07:02:56;9.10;98.00
7194;DHT22;3638;48.820;9.244;2023-04-06T07:05:23;8.80;96.80
7194;DHT22;3638;48.820;9.244;2023-04-06T07:07:52;8.90;96.00
7194;DHT22;3638;48.820;9.244;2023-04-06T07:10:19;8.90;96.30
7194;DHT22;3638;48.820;9.244;2023-04-06T07:12:55;9.20;96.00
7194;DHT22;3638;48.820;9.244;2023-04-06T07:15:21;9.30;95.50
7194;DHT22;3638;48.820;9.244;2023-04-06T07:17:49;9.40;95.10
7194;DHT22;3638;48.820;9.244;2023-04-06T07:20:16;9.40;94.60
7194;DHT22;3638;48.820;9.244;2023-04-06T07:22:43;9.20;94.70
7194;DHT22;3638;48.820;9.244;2023-04-06T07:25:12;9.50;94.10
7194;DHT22;3638;48.820;9.244;2023-04-06T07:27:39;9.50;94.30
7194;DHT22;3638;48.820;9.244;2023-04-06T07:30:07;9.60;94.00
7194;DHT22;3638;48.820;9.244;2023-04-06T07:32:34;9.50;93.80
7194;DHT22;3638;48.820;9.244;2023-04-06T07:35:01;9.50;93.40
7194;DHT22;3638;48.820;9.244;2023-04-06T07:37:28;9.90;93.10
7194;DHT22;3638;48.820;9.244;2023-04-06T07:39:55;9.90;92.50
7194;DHT22;3638;48.820;9.244;2023-04-06T07:42:23;10.00;92.10
7194;DHT22;3638;48.820;9.244;2023-04-06T07:44:51;10.30;92.00
7194;DHT22;3638;48.820;9.244;2023-04-06T07:47:18;10.70;91.50
7194;DHT22;3638;48.820;9.244;2023-04-06T07:49:45;12.80;91.00
7194;DHT22;3638;48.820;9.244;2023-04-06T07:52:12;10.70;90.90
7194;DHT22;3638;48.820;9.244;2023-04-06T07:54:40;10.60;90.10
7194;DHT22;3638;48.820;9.244;2023-04-06T07:57:07;10.70;90.80
7194;DHT22;3638;48.820;9.244;2023-04-06T07:59:35;11.00;89.70
7194;DHT22;3638;48.820;9.244;2023-04-06T08:02:02;11.00;90.00
7194;DHT22;3638;48.820;9.244;2023-04-06T08:04:28;11.00;90.00
7194;DHT22;3638;48.820;9.244;2023-04-06T08:06:55;11.10;89.30
7194;DHT22;3638;48.820;9.244;2023-04-06T08:09:22;11.00;90.10
7194;DHT22;3638;48.820;9.244;2023-04-06T08:11:49;11.20;90.50
7194;DHT22;3638;48.820;9.244;2023-04-06T08:14:16;11.40;89.60
7194;DHT22;3638;48.820;9.244;2023-04-06T08:16:44;11.60;87.40
7194;DHT22;3638;48.820;9.244;2023-04-06T08:19:11;11.70;86.50
7194;DHT22;3638;48.820;9.244;2023-04-06T08:21:38;11.60;87.40
7194;DHT22;3638;48.820;9.244;2023-04-06T08:24:06;11.80;87.20
7194;DHT22;3638;48.820;9.244;2023-04-06T08:26:33;11.90;85.90
7194;DHT22;3638;48.820;9.244;2023-04-06T08:29:00;11.90;82.80
7194;DHT22;3638;48.820;9.244;2023-04-06T08:31:29;11.80;82.40
7194;DHT22;3638;48.820;9.244;2023-04-06T08:33:57;11.80;85.80
7194;DHT22;3638;48.820;9.244;2023-04-06T08:36:24;12.00;85.30
7194;DHT22;3638;48.820;9.244;2023-04-06T08:41:19;12.10;82.90
7194;DHT22;3638;48.820;9.244;2023-04-06T08:43:49;12.20;83.80
7194;DHT22;3638;48.820;9.244;2023-04-06T08:46:19;12.20;82.40
7194;DHT22;3638;48.820;9.244;2023-04-06T08:48:47;12.10;83.20
7194;DHT22;3638;48.820;9.244;2023-04-06T08:51:17;12.50;81.10
7194;DHT22;3638;48.820;9.244;2023-04-06T08:53:45;12.00;77.90
7194;DHT22;3638;48.820;9.244;2023-04-06T09:01:11;12.20;77.40
7194;DHT22;3638;48.820;9.244;2023-04-06T09:03:42;12.30;79.80
7194;DHT22;3638;48.820;9.244;2023-04-06T09:06:10;12.20;77.40
7194;DHT22;3638;48.820;9.244;2023-04-06T09:08:40;12.40;75.70
7194;DHT22;3638;48.820;9.244;2023-04-06T09:11:08;12.70;74.20
7194;DHT22;3638;48.820;9.244;2023-04-06T09:13:45;12.90;75.10
7194;DHT22;3638;48.820;9.244;2023-04-06T09:16:13;13.00;75.00
7194;DHT22;3638;48.820;9.244;2023-04-06T09:18:40;13.00;72.90
7194;DHT22;3638;48.820;9.244;2023-04-06T09:21:08;12.90;74.90
7194;DHT22;3638;48.820;9.244;2023-04-06T09:23:35;12.90;73.90
7194;DHT22;3638;48.820;9.244;2023-04-06T09:26:08;13.10;70.00
7194;DHT22;3638;48.820;9.244;2023-04-06T09:28:46;13.00;70.40
7194;DHT22;3638;48.820;9.244;2023-04-06T09:31:16;13.10;69.90
7194;DHT22;3638;48.820;9.244;2023-04-06T09:33:45;13.30;67.60
7194;DHT22;3638;48.820;9.244;2023-04-06T09:36:13;13.30;68.90
7194;DHT22;3638;48.820;9.244;2023-04-06T09:38:52;13.30;64.90
7194;DHT22;3638;48.820;9.244;2023-04-06T09:41:26;12.70;65.40
7194;DHT22;3638;48.820;9.244;2023-04-06T09:44:02;12.90;67.30
7194;DHT22;3638;48.820;9.244;2023-04-06T09:46:32;13.10;67.80
7194;DHT22;3638;48.820;9.244;2023-04-06T09:49:01;13.60;66.70
7194;DHT22;3638;48.820;9.244;2023-04-06T09:51:31;13.80;66.00
7194;DHT22;3638;48.820;9.244;2023-04-06T09:53:59;13.70;65.30
7194;DHT22;3638;48.820;9.244;2023-04-06T09:56:33;13.70;65.20
7194;DHT22;3638;48.820;9.244;2023-04-06T09:59:08;13.80;66.50
7194;DHT22;3638;48.820;9.244;2023-04-06T10:01:39;13.80;66.60
7194;DHT22;3638;48.820;9.244;2023-04-06T10:04:17;13.70;65.00
7194;DHT22;3638;48.820;9.244;2023-04-06T10:06:52;13.70;62.80
7194;DHT22;3638;48.820;9.244;2023-04-06T10:09:23;13.60;64.10
7194;DHT22;3638;48.820;9.244;2023-04-06T10:11:54;13.70;64.50
7194;DHT22;3638;48.820;9.244;2023-04-06T10:14:21;13.60;62.90
7194;DHT22;3638;48.820;9.244;2023-04-06T10:16:49;13.60;64.70
7194;DHT22;3638;48.820;9.244;2023-04-06T10:19:20;13.80;63.80
7194;DHT22;3638;48.820;9.244;2023-04-06T10:21:54;13.60;60.50
7194;DHT22;3638;48.820;9.244;2023-04-06T10:24:26;13.70;60.70
7194;DHT22;3638;48.820;9.244;2023-04-06T10:27:01;13.80;61.40
7194;DHT22;3638;48.820;9.244;2023-04-06T10:29:40;13.90;57.10
7194;DHT22;3638;48.820;9.244;2023-04-06T10:32:08;13.90;56.80
7194;DHT22;3638;48.820;9.244;2023-04-06T10:34:35;13.80;55.00
7194;DHT22;3638;48.820;9.244;2023-04-06T10:37:11;15.30;58.50
7194;DHT22;3638;48.820;9.244;2023-04-06T10:39:52;13.10;59.10
7194;DHT22;3638;48.820;9.244;2023-04-06T10:42:35;13.40;58.80
7194;DHT22;3638;48.820;9.244;2023-04-06T10:45:05;13.70;58.90
7194;DHT22;3638;48.820;9.244;2023-04-06T10:47:39;13.30;58.00
7194;DHT22;3638;48.820;9.244;2023-04-06T10:50:07;13.30;59.20
7194;DHT22;3638;48.820;9.244;2023-04-06T10:52:34;13.20;58.30
7194;DHT22;3638;48.820;9.244;2023-04-06T10:55:01;13.20;59.70
7194;DHT22;3638;48.820;9.244;2023-04-06T10:57:30;13.40;59.10
7194;DHT22;3638;48.820;9.244;2023-04-06T10:59:58;12.80;58.80
7194;DHT22;3638;48.820;9.244;2023-04-06T11:02:25;12.90;59.30
7194;DHT22;3638;48.820;9.244;2023-04-06T11:04:56;13.10;58.50
7194;DHT22;3638;48.820;9.244;2023-04-06T11:07:23;13.10;58.70
7194;DHT22;3638;48.820;9.244;2023-04-06T11:09:51;13.30;59.00
7194;DHT22;3638;48.820;9.244;2023-04-06T11:12:22;13.30;59.60
7194;DHT22;3638;48.820;9.244;2023-04-06T11:14:55;13.20;57.40
7194;DHT22;3638;48.820;9.244;2023-04-06T11:17:27;13.30;58.20
7194;DHT22;3638;48.820;9.244;2023-04-06T11:19:55;13.20;56.80
7194;DHT22;3638;48.820;9.244;2023-04-06T11:22:22;12.70;58.00
7194;DHT22;3638;48.820;9.244;2023-04-06T11:24:49;13.00;58.00
7194;DHT22;3638;48.820;9.244;2023-04-06T11:27:17;13.00;56.50
7194;DHT22;3638;48.820;9.244;2023-04-06T11:29:44;12.20;57.80
7194;DHT22;3638;48.820;9.244;2023-04-06T11:32:20;12.20;58.40
7194;DHT22;3638;48.820;9.244;2023-04-06T11:34:49;12.20;58.00
7194;DHT22;3638;48.820;9.244;2023-04-06T11:37:16;12.60;56.20
7194;DHT22;3638;48.820;9.244;2023-04-06T11:39:46;12.60;56.90
7194;DHT22;3638;48.820;9.244;2023-04-06T11:42:21;12.70;57.00
7194;DHT22;3638;48.820;9.244;2023-04-06T11:44:50;12.70;57.30
7194;DHT22;3638;48.820;9.244;2023-04-06T11:47:19;12.60;57.50
7194;DHT22;3638;48.820;9.244;2023-04-06T11:49:55;12.60;55.40
7194;DHT22;3638;48.820;9.244;2023-04-06T11:52:26;12.60;55.60
7194;DHT22;3638;48.820;9.244;2023-04-06T11:54:55;12.90;57.00
7194;DHT22;3638;48.820;9.244;2023-04-06T11:57:23;12.80;55.10
7194;DHT22;3638;48.820;9.244;2023-04-06T11:59:50;12.80;56.30
7194;DHT22;3638;48.820;9.244;2023-04-06T12:02:19;13.00;56.50
7194;DHT22;3638;48.820;9.244;2023-04-06T12:04:46;13.30;55.80
7194;DHT22;3638;48.820;9.244;2023-04-06T12:07:13;13.40;54.20
7194;DHT22;3638;48.820;9.244;2023-04-06T12:09:41;12.70;54.80
7194;DHT22;3638;48.820;9.244;2023-04-06T12:12:09;12.70;55.30
7194;DHT22;3638;48.820;9.244;2023-04-06T12:14:35;12.90;56.00
7194;DHT22;3638;48.820;9.244;2023-04-06T12:19:31;13.10;55.10
7194;DHT22;3638;48.820;9.244;2023-04-06T12:21:58;13.40;54.40
7194;DHT22;3638;48.820;9.244;2023-04-06T12:24:25;13.60;53.60
7194;DHT22;3638;48.820;9.244;2023-04-06T12:26:53;13.70;54.10
7194;DHT22;3638;48.820;9.244;2023-04-06T12:29:20;13.80;53.10
7194;DHT22;3638;48.820;9.244;2023-04-06T12:31:46;13.90;53.00
7194;DHT22;3638;48.820;9.244;2023-04-06T12:34:13;13.90;53.40
7194;DHT22;3638;48.820;9.244;2023-04-06T12:36:42;14.00;51.20
7194;DHT22;3638;48.820;9.244;2023-04-06T12:39:08;13.90;53.10
7194;DHT22;3638;48.820;9.244;2023-04-06T12:41:36;11.30;52.30
7194;DHT22;3638;48.820;9.244;2023-04-06T12:44:06;13.80;53.10
7194;DHT22;3638;48.820;9.244;2023-04-06T12:46:32;13.80;52.40
7194;DHT22;3638;48.820;9.244;2023-04-06T12:49:00;13.80;52.80
7194;DHT22;3638;48.820;9.244;2023-04-06T12:51:28;13.70;53.40
7194;DHT22;3638;48.820;9.244;2023-04-06T12:53:57;13.60;53.00
7194;DHT22;3638;48.820;9.244;2023-04-06T12:56:25;13.30;53.00
7194;DHT22;3638;48.820;9.244;2023-04-06T12:58:52;13.10;54.20
7194;DHT22;3638;48.820;9.244;2023-04-06T13:01:19;13.20;53.60
7194;DHT22;3638;48.820;9.244;2023-04-06T13:03:46;13.00;54.70
7194;DHT22;3638;48.820;9.244;2023-04-06T13:06:13;13.00;54.50
7194;DHT22;3638;48.820;9.244;2023-04-06T13:08:40;13.20;55.50
7194;DHT22;3638;48.820;9.244;2023-04-06T13:11:09;13.10;54.40
7194;DHT22;3638;48.820;9.244;2023-04-06T13:13:36;13.10;55.70
7194;DHT22;3638;48.820;9.244;2023-04-06T13:16:05;13.30;55.60
7194;DHT22;3638;48.820;9.244;2023-04-06T13:18:34;13.50;55.00
7194;DHT22;3638;48.820;9.244;2023-04-06T13:21:04;13.70;54.20
7194;DHT22;3638;48.820;9.244;2023-04-06T13:25:59;13.70;52.60
7194;DHT22;3638;48.820;9.244;2023-04-06T13:28:28;12.80;53.50
7194;DHT22;3638;48.820;9.244;2023-04-06T13:30:57;13.40;52.80
7194;DHT22;3638;48.820;9.244;2023-04-06T13:33:25;13.50;53.90
7194;DHT22;3638;48.820;9.244;2023-04-06T13:35:52;13.50;53.30
7194;DHT22;3638;48.820;9.244;2023-04-06T13:38:19;13.70;53.40
7194;DHT22;3638;48.820;9.244;2023-04-06T13:40:46;14.00;53.50
7194;DHT22;3638;48.820;9.244;2023-04-06T13:43:13;14.20;52.80
7194;DHT22;3638;48.820;9.244;2023-04-06T13:45:49;14.40;53.90
7194;DHT22;3638;48.820;9.244;2023-04-06T13:48:16;14.60;52.80
7194;DHT22;3638;48.820;9.244;2023-04-06T13:50:43;14.60;52.40
7194;DHT22;3638;48.820;9.244;2023-04-06T13:53:11;14.80;53.50
7194;DHT22;3638;48.820;9.244;2023-04-06T13:55:38;14.90;52.10
7194;DHT22;3638;48.820;9.244;2023-04-06T13:58:05;17.10;53.40
7194;DHT22;3638;48.820;9.244;2023-04-06T14:00:32;13.70;51.10
7194;DHT22;3638;48.820;9.244;2023-04-06T14:03:00;15.10;51.80
7194;DHT22;3638;48.820;9.244;2023-04-06T14:05:31;14.80;51.80
7194;DHT22;3638;48.820;9.244;2023-04-06T14:07:58;14.40;51.90
7194;DHT22;3638;48.820;9.244;2023-04-06T14:10:25;14.40;54.00
7194;DHT22;3638;48.820;9.244;2023-04-06T14:12:53;14.50;52.20
7194;DHT22;3638;48.820;9.244;2023-04-06T14:15:19;14.40;53.10
7194;DHT22;3638;48.820;9.244;2023-04-06T14:17:47;14.30;52.10
7194;DHT22;3638;48.820;9.244;2023-04-06T14:20:15;14.60;50.70
7194;DHT22;3638;48.820;9.244;2023-04-06T14:22:42;14.60;50.80
7194;DHT22;3638;48.820;9.244;2023-04-06T14:25:09;14.30;51.50
7194;DHT22;3638;48.820;9.244;2023-04-06T14:27:38;14.00;51.70
7194;DHT22;3638;48.820;9.244;2023-04-06T14:30:05;14.20;50.00
7194;DHT22;3638;48.820;9.244;2023-04-06T14:32:33;14.30;51.10
7194;DHT22;3638;48.820;9.244;2023-04-06T14:35:01;14.50;52.50
7194;DHT22;3638;48.820;9.244;2023-04-06T14:37:30;13.80;52.10
7194;DHT22;3638;48.820;9.244;2023-04-06T14:39:57;13.80;53.00
7194;DHT22;3638;48.820;9.244;2023-04-06T14:42:24;14.00;51.70
7194;DHT22;3638;48.820;9.244;2023-04-06T14:44:51;14.20;52.40
7194;DHT22;3638;48.820;9.244;2023-04-06T14:47:19;14.40;53.30
7194;DHT22;3638;48.820;9.244;2023-04-06T14:49:46;14.50;51.50
7194;DHT22;3638;48.820;9.244;2023-04-06T14:52:13;14.10;50.90
7194;DHT22;3638;48.820;9.244;2023-04-06T14:54:42;14.00;51.20
7194;DHT22;3638;48.820;9.244;2023-04-06T14:57:09;14.20;54.50
7194;DHT22;3638;48.820;9.244;2023-04-06T14:59:36;13.90;52.40
7194;DHT22;3638;48.820;9.244;2023-04-06T15:02:03;14.10;52.00
7194;DHT22;3638;48.820;9.244;2023-04-06T15:04:30;14.20;51.30
7194;DHT22;3638;48.820;9.244;2023-04-06T15:06:57;14.40;51.70
7194;DHT22;3638;48.820;9.244;2023-04-06T15:09:24;13.90;50.10
7194;DHT22;3638;48.820;9.244;2023-04-06T15:11:52;13.80;50.60
7194;DHT22;3638;48.820;9.244;2023-04-06T15:14:19;14.00;52.00
7194;DHT22;3638;48.820;9.244;2023-04-06T15:16:46;13.80;51.10
7194;DHT22;3638;48.820;9.244;2023-04-06T15:19:12;14.10;49.90
7194;DHT22;3638;48.820;9.244;2023-04-06T15:21:39;14.10;50.50
7194;DHT22;3638;48.820;9.244;2023-04-06T15:24:06;14.30;50.80
7194;DHT22;3638;48.820;9.244;2023-04-06T15:26:35;14.40;52.80
7194;DHT22;3638;48.820;9.244;2023-04-06T15:31:31;14.00;52.00
7194;DHT22;3638;48.820;9.244;2023-04-06T15:33:58;13.70;52.50
7194;DHT22;3638;48.820;9.244;2023-04-06T15:36:26;13.70;53.10
7194;DHT22;3638;48.820;9.244;2023-04-06T15:38:55;13.70;53.60
7194;DHT22;3638;48.820;9.244;2023-04-06T15:41:23;13.70;54.00
7194;DHT22;3638;48.820;9.244;2023-04-06T15:43:51;13.60;53.20
7194;DHT22;3638;48.820;9.244;2023-04-06T15:46:20;13.30;52.40
7194;DHT22;3638;48.820;9.244;2023-04-06T15:48:47;13.30;52.80
7194;DHT22;3638;48.820;9.244;2023-04-06T15:51:14;13.40;53.20
7194;DHT22;3638;48.820;9.244;2023-04-06T15:53:41;13.50;52.60
7194;DHT22;3638;48.820;9.244;2023-04-06T15:56:08;13.60;56.40
7194;DHT22;3638;48.820;9.244;2023-04-06T15:58:36;13.90;53.80
7194;DHT22;3638;48.820;9.244;2023-04-06T16:01:10;13.90;53.80
7194;DHT22;3638;48.820;9.244;2023-04-06T16:03:40;13.60;53.00
7194;DHT22;3638;48.820;9.244;2023-04-06T16:06:07;13.50;53.90
7194;DHT22;3638;48.820;9.244;2023-04-06T16:08:35;13.40;53.00
7194;DHT22;3638;48.820;9.244;2023-04-06T16:11:02;13.40;52.70
7194;DHT22;3638;48.820;9.244;2023-04-06T16:13:30;13.30;52.70
7194;DHT22;3638;48.820;9.244;2023-04-06T16:15:57;13.30;53.50
7194;DHT22;3638;48.820;9.244;2023-04-06T16:18:24;13.30;56.40
7194;DHT22;3638;48.820;9.244;2023-04-06T16:20:53;13.20;53.20
7194;DHT22;3638;48.820;9.244;2023-04-06T16:23:20;13.20;54.50
7194;DHT22;3638;48.820;9.244;2023-04-06T16:25:47;13.20;53.50
7194;DHT22;3638;48.820;9.244;2023-04-06T16:28:15;13.10;54.30
7194;DHT22;3638;48.820;9.244;2023-04-06T16:30:42;13.10;55.00
7194;DHT22;3638;48.820;9.244;2023-04-06T16:33:10;13.00;55.60